sensor_id;sensor_type;location;lat;lon;timestamp;P1;durP1;ratioP1;P2;durP2;ratioP2
30458;SDS011;74163;50.912;6.918;2024-03-06T00:00:00;37.58;;;24.98;;
30458;SDS011;74163;50.912;6.918;2024-03-06T00:00:34;36.00;;;24.33;;
30458;SDS011;74163;50.912;6.918;2024-03-06T00:01:06;37.88;;;25.83;;
30458;SDS011;74163;50.912;6.918;2024-03-06T00:01:38;36.97;;;24.85;;
30458;SDS011;74163;50.912;6.918;2024-03-06T00:02:10;39.70;;;26.55;;
30458;SDS011;74163;50.912;6.918;2024-03-06T00:02:42;39.60;;;26.35;;
30458;SDS011;74163;50.912;6.918;2024-03-06T00:03:14;39.08;;;26.52;;
30458;SDS011;74163;50.912;6.918;2024-03-06T00:03:47;37.38;;;24.85;;
30458;SDS011;74163;50.912;6.918;2024-03-06T00:04:19;39.38;;;25.58;;
30458;SDS011;74163;50.912;6.918;2024-03-06T00:04:51;39.42;;;26.50;;
30458;SDS011;74163;50.912;6.918;2024-03-06T00:05:23;39.65;;;26.58;;
30458;SDS011;74163;50.912;6.918;2024-03-06T00:05:55;42.83;;;26.27;;
30458;SDS011;74163;50.912;6.918;2024-03-06T00:06:27;39.83;;;25.20;;
30458;SDS011;74163;50.912;6.918;2024-03-06T00:06:59;36.53;;;24.33;;
30458;SDS011;74163;50.912;6.918;2024-03-06T00:07:31;36.03;;;24.67;;
30458;SDS011;74163;50.912;6.918;2024-03-06T00:08:03;44.53;;;28.30;;
30458;SDS011;74163;50.912;6.918;2024-03-06T00:08:35;44.92;;;28.85;;
30458;SDS011;74163;50.912;6.918;2024-03-06T00:09:07;43.55;;;28.48;;
30458;SDS011;74163;50.912;6.918;2024-03-06T00:09:39;42.15;;;27.50;;
30458;SDS011;74163;50.912;6.918;2024-03-06T00:10:11;42.38;;;27.98;;
30458;SDS011;74163;50.912;6.918;2024-03-06T00:10:43;42.40;;;28.15;;
30458;SDS011;74163;50.912;6.918;2024-03-06T00:11:15;40.95;;;27.38;;
30458;SDS011;74163;50.912;6.918;2024-03-06T00:11:47;41.17;;;27.75;;
30458;SDS011;74163;50.912;6.918;2024-03-06T00:12:19;39.75;;;26.25;;
30458;SDS011;74163;50.912;6.918;2024-03-06T00:12:51;38.75;;;26.55;;
30458;SDS011;74163;50.912;6.918;2024-03-06T00:13:22;39.70;;;26.83;;
30458;SDS011;74163;50.912;6.918;2024-03-06T00:13:54;40.45;;;27.20;;
30458;SDS011;74163;50.912;6.918;2024-03-06T00:14:26;42.67;;;27.52;;
30458;SDS011;74163;50.912;6.918;2024-03-06T00:14:58;37.03;;;25.73;;
30458;SDS011;74163;50.912;6.918;2024-03-06T00:15:30;39.35;;;26.05;;
30458;SDS011;74163;50.912;6.918;2024-03-06T00:16:02;37.33;;;24.88;;
30458;SDS011;74163;50.912;6.918;2024-03-06T00:16:34;39.33;;;26.23;;
30458;SDS011;74163;50.912;6.918;2024-03-06T00:17:06;35.75;;;25.17;;
30458;SDS011;74163;50.912;6.918;2024-03-06T00:17:39;38.55;;;27.00;;
30458;SDS011;74163;50.912;6.918;2024-03-06T00:18:11;41.70;;;27.57;;
30458;SDS011;74163;50.912;6.918;2024-03-06T00:18:42;41.65;;;26.52;;
30458;SDS011;74163;50.912;6.918;2024-03-06T00:19:16;46.90;;;28.85;;
30458;SDS011;74163;50.912;6.918;2024-03-06T00:19:48;46.42;;;28.92;;
30458;SDS011;74163;50.912;6.918;2024-03-06T00:20:19;39.60;;;26.80;;
30458;SDS011;74163;50.912;6.918;2024-03-06T00:20:51;43.25;;;27.80;;
30458;SDS011;74163;50.912;6.918;2024-03-06T00:21:23;42.63;;;28.27;;
30458;SDS011;74163;50.912;6.918;2024-03-06T00:21:55;43.03;;;27.90;;
30458;SDS011;74163;50.912;6.918;2024-03-06T00:22:27;40.97;;;26.63;;
30458;SDS011;74163;50.912;6.918;2024-03-06T00:22:59;40.80;;;26.58;;
30458;SDS011;74163;50.912;6.918;2024-03-06T00:23:31;38.95;;;27.30;;
30458;SDS011;74163;50.912;6.918;2024-03-06T00:24:03;39.78;;;26.95;;
30458;SDS011;74163;50.912;6.918;2024-03-06T00:24:35;40.95;;;27.60;;
30458;SDS011;74163;50.912;6.918;2024-03-06T00:25:07;39.87;;;26.23;;
30458;SDS011;74163;50.912;6.918;2024-03-06T00:25:39;40.70;;;26.90;;
30458;SDS011;74163;50.912;6.918;2024-03-06T00:26:10;41.28;;;26.38;;
30458;SDS011;74163;50.912;6.918;2024-03-06T00:26:43;40.38;;;26.73;;
30458;SDS011;74163;50.912;6.918;2024-03-06T00:27:15;40.63;;;26.85;;
30458;SDS011;74163;50.912;6.918;2024-03-06T00:27:47;39.15;;;26.15;;
30458;SDS011;74163;50.912;6.918;2024-03-06T00:28:19;41.67;;;27.92;;
30458;SDS011;74163;50.912;6.918;2024-03-06T00:28:51;39.95;;;27.08;;
30458;SDS011;74163;50.912;6.918;2024-03-06T00:29:23;39.13;;;25.95;;
30458;SDS011;74163;50.912;6.918;2024-03-06T00:29:55;41.80;;;27.08;;
30458;SDS011;74163;50.912;6.918;2024-03-06T00:30:27;41.20;;;27.42;;
30458;SDS011;74163;50.912;6.918;2024-03-06T00:30:58;38.47;;;26.05;;
30458;SDS011;74163;50.912;6.918;2024-03-06T00:31:30;42.30;;;27.30;;
30458;SDS011;74163;50.912;6.918;2024-03-06T00:32:02;39.97;;;27.30;;
30458;SDS011;74163;50.912;6.918;2024-03-06T00:32:34;38.92;;;27.08;;
30458;SDS011;74163;50.912;6.918;2024-03-06T00:33:06;36.92;;;25.20;;
30458;SDS011;74163;50.912;6.918;2024-03-06T00:33:39;39.05;;;25.48;;
30458;SDS011;74163;50.912;6.918;2024-03-06T00:34:12;39.50;;;26.60;;
30458;SDS011;74163;50.912;6.918;2024-03-06T00:34:45;41.03;;;26.52;;
30458;SDS011;74163;50.912;6.918;2024-03-06T00:35:17;32.78;;;23.60;;
30458;SDS011;74163;50.912;6.918;2024-03-06T00:35:49;37.22;;;25.35;;
30458;SDS011;74163;50.912;6.918;2024-03-06T00:36:21;37.15;;;24.92;;
30458;SDS011;74163;50.912;6.918;2024-03-06T00:36:53;33.30;;;23.17;;
30458;SDS011;74163;50.912;6.918;2024-03-06T00:37:25;32.75;;;23.95;;
30458;SDS011;74163;50.912;6.918;2024-03-06T00:37:57;31.08;;;22.90;;
30458;SDS011;74163;50.912;6.918;2024-03-06T00:38:29;31.10;;;21.20;;
30458;SDS011;74163;50.912;6.918;2024-03-06T00:39:01;33.90;;;23.77;;
30458;SDS011;74163;50.912;6.918;2024-03-06T00:39:32;32.03;;;22.65;;
30458;SDS011;74163;50.912;6.918;2024-03-06T00:40:05;35.63;;;22.83;;
30458;SDS011;74163;50.912;6.918;2024-03-06T00:40:38;33.10;;;23.58;;
30458;SDS011;74163;50.912;6.918;2024-03-06T00:41:09;35.42;;;24.02;;
30458;SDS011;74163;50.912;6.918;2024-03-06T00:41:41;37.92;;;25.77;;
30458;SDS011;74163;50.912;6.918;2024-03-06T00:42:13;38.47;;;25.55;;
30458;SDS011;74163;50.912;6.918;2024-03-06T00:42:45;40.20;;;26.75;;
30458;SDS011;74163;50.912;6.918;2024-03-06T00:43:17;37.10;;;24.73;;
30458;SDS011;74163;50.912;6.918;2024-03-06T00:43:49;37.28;;;25.13;;
30458;SDS011;74163;50.912;6.918;2024-03-06T00:44:21;39.65;;;24.02;;
30458;SDS011;74163;50.912;6.918;2024-03-06T00:44:53;36.55;;;24.25;;
30458;SDS011;74163;50.912;6.918;2024-03-06T00:45:24;36.70;;;24.88;;
30458;SDS011;74163;50.912;6.918;2024-03-06T00:45:56;38.45;;;25.90;;
30458;SDS011;74163;50.912;6.918;2024-03-06T00:46:28;34.35;;;24.73;;
30458;SDS011;74163;50.912;6.918;2024-03-06T00:47:00;35.55;;;25.10;;
30458;SDS011;74163;50.912;6.918;2024-03-06T00:47:32;37.50;;;25.52;;
30458;SDS011;74163;50.912;6.918;2024-03-06T00:48:04;38.53;;;24.80;;
30458;SDS011;74163;50.912;6.918;2024-03-06T00:48:36;38.47;;;26.90;;
30458;SDS011;74163;50.912;6.918;2024-03-06T00:49:11;40.33;;;26.75;;
30458;SDS011;74163;50.912;6.918;2024-03-06T00:49:43;42.55;;;28.42;;
30458;SDS011;74163;50.912;6.918;2024-03-06T00:50:17;41.70;;;26.63;;
30458;SDS011;74163;50.912;6.918;2024-03-06T00:50:48;39.75;;;27.02;;
30458;SDS011;74163;50.912;6.918;2024-03-06T00:51:20;38.97;;;25.23;;
30458;SDS011;74163;50.912;6.918;2024-03-06T00:52:03;37.10;;;25.75;;
30458;SDS011;74163;50.912;6.918;2024-03-06T00:52:35;42.03;;;27.73;;
30458;SDS011;74163;50.912;6.918;2024-03-06T00:53:07;37.92;;;26.05;;
30458;SDS011;74163;50.912;6.918;2024-03-06T00:53:39;41.58;;;26.90;;
30458;SDS011;74163;50.912;6.918;2024-03-06T00:54:11;42.38;;;27.52;;
30458;SDS011;74163;50.912;6.918;2024-03-06T00:54:42;43.33;;;27.98;;
30458;SDS011;74163;50.912;6.918;2024-03-06T00:55:14;45.03;;;28.55;;
30458;SDS011;74163;50.912;6.918;2024-03-06T00:55:47;43.85;;;28.17;;
30458;SDS011;74163;50.912;6.918;2024-03-06T00:56:18;39.83;;;27.25;;
30458;SDS011;74163;50.912;6.918;2024-03-06T00:56:50;39.38;;;26.20;;
30458;SDS011;74163;50.912;6.918;2024-03-06T00:57:22;38.20;;;25.95;;
30458;SDS011;74163;50.912;6.918;2024-03-06T00:57:54;40.20;;;26.35;;
30458;SDS011;74163;50.912;6.918;2024-03-06T00:58:26;37.78;;;25.50;;
30458;SDS011;74163;50.912;6.918;2024-03-06T00:58:58;37.90;;;25.75;;
30458;SDS011;74163;50.912;6.918;2024-03-06T00:59:30;38.80;;;26.03;;
30458;SDS011;74163;50.912;6.918;2024-03-06T01:00:02;35.80;;;24.00;;
30458;SDS011;74163;50.912;6.918;2024-03-06T01:00:34;33.85;;;23.55;;
30458;SDS011;74163;50.912;6.918;2024-03-06T01:01:06;36.15;;;25.30;;
30458;SDS011;74163;50.912;6.918;2024-03-06T01:01:38;35.00;;;24.67;;
30458;SDS011;74163;50.912;6.918;2024-03-06T01:02:10;38.10;;;26.10;;
30458;SDS011;74163;50.912;6.918;2024-03-06T01:02:42;37.35;;;25.70;;
30458;SDS011;74163;50.912;6.918;2024-03-06T01:03:14;41.63;;;26.85;;
30458;SDS011;74163;50.912;6.918;2024-03-06T01:03:45;41.22;;;26.92;;
30458;SDS011;74163;50.912;6.918;2024-03-06T01:04:17;37.97;;;24.87;;
30458;SDS011;74163;50.912;6.918;2024-03-06T01:04:51;39.67;;;26.10;;
30458;SDS011;74163;50.912;6.918;2024-03-06T01:05:24;43.28;;;29.25;;
30458;SDS011;74163;50.912;6.918;2024-03-06T01:05:56;40.28;;;27.30;;
30458;SDS011;74163;50.912;6.918;2024-03-06T01:06:28;37.58;;;26.35;;
30458;SDS011;74163;50.912;6.918;2024-03-06T01:07:00;42.15;;;28.08;;
30458;SDS011;74163;50.912;6.918;2024-03-06T01:07:32;38.95;;;26.55;;
30458;SDS011;74163;50.912;6.918;2024-03-06T01:08:04;39.25;;;25.83;;
30458;SDS011;74163;50.912;6.918;2024-03-06T01:08:36;35.75;;;25.48;;
30458;SDS011;74163;50.912;6.918;2024-03-06T01:09:08;34.65;;;24.08;;
30458;SDS011;74163;50.912;6.918;2024-03-06T01:09:40;33.78;;;24.00;;
30458;SDS011;74163;50.912;6.918;2024-03-06T01:10:12;36.20;;;25.88;;
30458;SDS011;74163;50.912;6.918;2024-03-06T01:10:44;38.85;;;25.92;;
30458;SDS011;74163;50.912;6.918;2024-03-06T01:11:16;35.80;;;25.95;;
30458;SDS011;74163;50.912;6.918;2024-03-06T01:11:48;38.80;;;26.30;;
30458;SDS011;74163;50.912;6.918;2024-03-06T01:12:19;38.55;;;25.40;;
30458;SDS011;74163;50.912;6.918;2024-03-06T01:12:51;32.88;;;22.85;;
30458;SDS011;74163;50.912;6.918;2024-03-06T01:13:23;32.40;;;22.13;;
30458;SDS011;74163;50.912;6.918;2024-03-06T01:13:55;32.65;;;22.77;;
30458;SDS011;74163;50.912;6.918;2024-03-06T01:14:27;39.50;;;27.33;;
30458;SDS011;74163;50.912;6.918;2024-03-06T01:14:59;38.97;;;25.42;;
30458;SDS011;74163;50.912;6.918;2024-03-06T01:15:31;40.92;;;27.02;;
30458;SDS011;74163;50.912;6.918;2024-03-06T01:16:03;42.70;;;28.17;;
30458;SDS011;74163;50.912;6.918;2024-03-06T01:16:36;42.33;;;27.73;;
30458;SDS011;74163;50.912;6.918;2024-03-06T01:17:07;41.67;;;27.33;;
30458;SDS011;74163;50.912;6.918;2024-03-06T01:17:39;42.90;;;26.67;;
30458;SDS011;74163;50.912;6.918;2024-03-06T01:18:11;39.90;;;26.27;;
30458;SDS011;74163;50.912;6.918;2024-03-06T01:18:43;45.63;;;27.98;;
30458;SDS011;74163;50.912;6.918;2024-03-06T01:19:15;39.05;;;25.67;;
30458;SDS011;74163;50.912;6.918;2024-03-06T01:19:47;39.40;;;26.23;;
30458;SDS011;74163;50.912;6.918;2024-03-06T01:20:20;41.13;;;27.20;;
30458;SDS011;74163;50.912;6.918;2024-03-06T01:20:52;39.33;;;26.77;;
30458;SDS011;74163;50.912;6.918;2024-03-06T01:21:24;41.58;;;26.70;;
30458;SDS011;74163;50.912;6.918;2024-03-06T01:21:56;40.95;;;27.65;;
30458;SDS011;74163;50.912;6.918;2024-03-06T01:22:28;38.57;;;26.07;;
30458;SDS011;74163;50.912;6.918;2024-03-06T01:23:00;39.35;;;25.27;;
30458;SDS011;74163;50.912;6.918;2024-03-06T01:23:32;39.65;;;25.45;;
30458;SDS011;74163;50.912;6.918;2024-03-06T01:24:04;40.00;;;24.83;;
30458;SDS011;74163;50.912;6.918;2024-03-06T01:24:36;42.00;;;27.17;;
30458;SDS011;74163;50.912;6.918;2024-03-06T01:25:08;37.92;;;25.35;;
30458;SDS011;74163;50.912;6.918;2024-03-06T01:25:40;41.70;;;28.23;;
30458;SDS011;74163;50.912;6.918;2024-03-06T01:26:12;43.88;;;27.38;;
30458;SDS011;74163;50.912;6.918;2024-03-06T01:26:44;45.38;;;28.25;;
30458;SDS011;74163;50.912;6.918;2024-03-06T01:27:16;40.78;;;26.88;;
30458;SDS011;74163;50.912;6.918;2024-03-06T01:27:48;41.67;;;26.60;;
30458;SDS011;74163;50.912;6.918;2024-03-06T01:28:20;40.03;;;25.55;;
30458;SDS011;74163;50.912;6.918;2024-03-06T01:28:51;40.70;;;26.20;;
30458;SDS011;74163;50.912;6.918;2024-03-06T01:29:23;41.83;;;27.27;;
30458;SDS011;74163;50.912;6.918;2024-03-06T01:29:55;39.45;;;26.55;;
30458;SDS011;74163;50.912;6.918;2024-03-06T01:30:27;37.55;;;25.23;;
30458;SDS011;74163;50.912;6.918;2024-03-06T01:30:59;41.72;;;26.95;;
30458;SDS011;74163;50.912;6.918;2024-03-06T01:31:31;38.22;;;25.98;;
30458;SDS011;74163;50.912;6.918;2024-03-06T01:32:03;40.38;;;27.35;;
30458;SDS011;74163;50.912;6.918;2024-03-06T01:32:35;42.78;;;26.88;;
30458;SDS011;74163;50.912;6.918;2024-03-06T01:33:07;38.50;;;26.10;;
30458;SDS011;74163;50.912;6.918;2024-03-06T01:33:39;38.22;;;25.27;;
30458;SDS011;74163;50.912;6.918;2024-03-06T01:34:11;34.90;;;23.58;;
30458;SDS011;74163;50.912;6.918;2024-03-06T01:34:43;36.13;;;24.45;;
30458;SDS011;74163;50.912;6.918;2024-03-06T01:35:15;36.58;;;23.45;;
30458;SDS011;74163;50.912;6.918;2024-03-06T01:35:48;33.05;;;23.40;;
30458;SDS011;74163;50.912;6.918;2024-03-06T01:36:20;34.17;;;23.13;;
30458;SDS011;74163;50.912;6.918;2024-03-06T01:36:52;35.22;;;23.33;;
30458;SDS011;74163;50.912;6.918;2024-03-06T01:37:24;37.60;;;24.63;;
30458;SDS011;74163;50.912;6.918;2024-03-06T01:37:55;39.13;;;24.90;;
30458;SDS011;74163;50.912;6.918;2024-03-06T01:38:27;38.45;;;25.30;;
30458;SDS011;74163;50.912;6.918;2024-03-06T01:38:59;38.67;;;25.05;;
30458;SDS011;74163;50.912;6.918;2024-03-06T01:39:31;35.53;;;24.83;;
30458;SDS011;74163;50.912;6.918;2024-03-06T01:40:03;35.17;;;23.60;;
30458;SDS011;74163;50.912;6.918;2024-03-06T01:40:36;34.53;;;23.63;;
30458;SDS011;74163;50.912;6.918;2024-03-06T01:41:07;35.33;;;24.55;;
30458;SDS011;74163;50.912;6.918;2024-03-06T01:41:44;39.67;;;26.03;;
30458;SDS011;74163;50.912;6.918;2024-03-06T01:42:16;40.08;;;25.13;;
30458;SDS011;74163;50.912;6.918;2024-03-06T01:42:48;38.70;;;24.10;;
30458;SDS011;74163;50.912;6.918;2024-03-06T01:43:21;41.25;;;26.85;;
30458;SDS011;74163;50.912;6.918;2024-03-06T01:43:54;44.95;;;27.48;;
30458;SDS011;74163;50.912;6.918;2024-03-06T01:44:25;39.53;;;26.10;;
30458;SDS011;74163;50.912;6.918;2024-03-06T01:44:57;41.10;;;26.63;;
30458;SDS011;74163;50.912;6.918;2024-03-06T01:45:29;40.65;;;26.00;;
30458;SDS011;74163;50.912;6.918;2024-03-06T01:46:01;36.53;;;23.92;;
30458;SDS011;74163;50.912;6.918;2024-03-06T01:46:33;37.53;;;24.80;;
30458;SDS011;74163;50.912;6.918;2024-03-06T01:47:05;35.28;;;24.55;;
30458;SDS011;74163;50.912;6.918;2024-03-06T01:47:37;34.80;;;23.60;;
30458;SDS011;74163;50.912;6.918;2024-03-06T01:48:09;35.83;;;24.50;;
30458;SDS011;74163;50.912;6.918;2024-03-06T01:48:41;33.30;;;22.88;;
30458;SDS011;74163;50.912;6.918;2024-03-06T01:49:13;37.17;;;25.10;;
30458;SDS011;74163;50.912;6.918;2024-03-06T01:49:56;36.50;;;24.85;;
30458;SDS011;74163;50.912;6.918;2024-03-06T01:50:28;35.63;;;23.50;;
30458;SDS011;74163;50.912;6.918;2024-03-06T01:51:01;33.08;;;22.95;;
30458;SDS011;74163;50.912;6.918;2024-03-06T01:51:34;34.53;;;23.55;;
30458;SDS011;74163;50.912;6.918;2024-03-06T01:52:07;34.00;;;23.15;;
30458;SDS011;74163;50.912;6.918;2024-03-06T01:52:41;34.85;;;23.25;;
30458;SDS011;74163;50.912;6.918;2024-03-06T01:53:13;33.53;;;22.50;;
30458;SDS011;74163;50.912;6.918;2024-03-06T01:53:49;35.75;;;23.35;;
30458;SDS011;74163;50.912;6.918;2024-03-06T01:54:21;34.90;;;23.42;;
30458;SDS011;74163;50.912;6.918;2024-03-06T01:54:54;34.20;;;23.73;;
30458;SDS011;74163;50.912;6.918;2024-03-06T01:55:26;34.58;;;23.73;;
30458;SDS011;74163;50.912;6.918;2024-03-06T01:55:58;33.47;;;23.55;;
30458;SDS011;74163;50.912;6.918;2024-03-06T01:56:31;33.90;;;22.60;;
30458;SDS011;74163;50.912;6.918;2024-03-06T01:57:04;32.15;;;23.05;;
30458;SDS011;74163;50.912;6.918;2024-03-06T01:57:39;29.35;;;20.80;;
30458;SDS011;74163;50.912;6.918;2024-03-06T01:58:12;28.08;;;20.50;;
30458;SDS011;74163;50.912;6.918;2024-03-06T01:58:44;27.08;;;19.75;;
30458;SDS011;74163;50.912;6.918;2024-03-06T01:59:18;28.50;;;20.50;;
30458;SDS011;74163;50.912;6.918;2024-03-06T02:00:06;27.13;;;20.67;;
30458;SDS011;74163;50.912;6.918;2024-03-06T02:00:40;31.55;;;21.25;;
30458;SDS011;74163;50.912;6.918;2024-03-06T02:01:12;32.90;;;22.92;;
30458;SDS011;74163;50.912;6.918;2024-03-06T02:01:44;32.65;;;22.60;;
30458;SDS011;74163;50.912;6.918;2024-03-06T02:02:17;31.42;;;22.02;;
30458;SDS011;74163;50.912;6.918;2024-03-06T02:02:49;34.25;;;22.88;;
30458;SDS011;74163;50.912;6.918;2024-03-06T02:03:21;34.92;;;23.83;;
30458;SDS011;74163;50.912;6.918;2024-03-06T02:03:55;37.47;;;24.08;;
30458;SDS011;74163;50.912;6.918;2024-03-06T02:04:27;33.50;;;22.40;;
30458;SDS011;74163;50.912;6.918;2024-03-06T02:05:00;36.38;;;24.88;;
30458;SDS011;74163;50.912;6.918;2024-03-06T02:05:32;37.20;;;23.90;;
30458;SDS011;74163;50.912;6.918;2024-03-06T02:06:07;35.97;;;23.60;;
30458;SDS011;74163;50.912;6.918;2024-03-06T02:06:42;39.22;;;25.10;;
30458;SDS011;74163;50.912;6.918;2024-03-06T02:07:14;34.95;;;24.15;;
30458;SDS011;74163;50.912;6.918;2024-03-06T02:07:48;34.67;;;22.73;;
30458;SDS011;74163;50.912;6.918;2024-03-06T02:08:21;35.30;;;23.10;;
30458;SDS011;74163;50.912;6.918;2024-03-06T02:08:52;38.63;;;24.55;;
30458;SDS011;74163;50.912;6.918;2024-03-06T02:09:24;37.58;;;24.35;;
30458;SDS011;74163;50.912;6.918;2024-03-06T02:09:56;38.37;;;24.87;;
30458;SDS011;74163;50.912;6.918;2024-03-06T02:10:28;42.05;;;27.08;;
30458;SDS011;74163;50.912;6.918;2024-03-06T02:11:01;39.90;;;26.23;;
30458;SDS011;74163;50.912;6.918;2024-03-06T02:11:33;37.83;;;25.25;;
30458;SDS011;74163;50.912;6.918;2024-03-06T02:12:05;39.63;;;25.42;;
30458;SDS011;74163;50.912;6.918;2024-03-06T02:12:37;41.17;;;25.50;;
30458;SDS011;74163;50.912;6.918;2024-03-06T02:13:09;38.47;;;25.33;;
30458;SDS011;74163;50.912;6.918;2024-03-06T02:13:41;33.97;;;23.37;;
30458;SDS011;74163;50.912;6.918;2024-03-06T02:14:14;36.28;;;24.92;;
30458;SDS011;74163;50.912;6.918;2024-03-06T02:14:46;40.00;;;25.80;;
30458;SDS011;74163;50.912;6.918;2024-03-06T02:15:17;34.88;;;24.80;;
30458;SDS011;74163;50.912;6.918;2024-03-06T02:15:49;41.53;;;26.37;;
30458;SDS011;74163;50.912;6.918;2024-03-06T02:16:21;43.15;;;27.38;;
30458;SDS011;74163;50.912;6.918;2024-03-06T02:16:53;41.70;;;25.75;;
30458;SDS011;74163;50.912;6.918;2024-03-06T02:17:25;41.13;;;26.35;;
30458;SDS011;74163;50.912;6.918;2024-03-06T02:17:57;41.35;;;25.95;;
30458;SDS011;74163;50.912;6.918;2024-03-06T02:18:30;43.53;;;26.58;;
30458;SDS011;74163;50.912;6.918;2024-03-06T02:19:02;36.28;;;25.55;;
30458;SDS011;74163;50.912;6.918;2024-03-06T02:19:40;42.63;;;26.20;;
30458;SDS011;74163;50.912;6.918;2024-03-06T02:20:13;43.53;;;26.70;;
30458;SDS011;74163;50.912;6.918;2024-03-06T02:20:46;42.15;;;26.77;;
30458;SDS011;74163;50.912;6.918;2024-03-06T02:21:18;47.05;;;28.15;;
30458;SDS011;74163;50.912;6.918;2024-03-06T02:21:50;39.35;;;25.92;;
30458;SDS011;74163;50.912;6.918;2024-03-06T02:22:22;43.10;;;27.05;;
30458;SDS011;74163;50.912;6.918;2024-03-06T02:22:54;40.20;;;24.83;;
30458;SDS011;74163;50.912;6.918;2024-03-06T02:23:26;40.42;;;25.00;;
30458;SDS011;74163;50.912;6.918;2024-03-06T02:23:58;36.22;;;24.45;;
30458;SDS011;74163;50.912;6.918;2024-03-06T02:24:30;34.45;;;23.35;;
30458;SDS011;74163;50.912;6.918;2024-03-06T02:25:01;38.75;;;25.63;;
30458;SDS011;74163;50.912;6.918;2024-03-06T02:25:33;38.70;;;24.92;;
30458;SDS011;74163;50.912;6.918;2024-03-06T02:26:06;36.25;;;24.25;;
30458;SDS011;74163;50.912;6.918;2024-03-06T02:26:38;34.75;;;24.05;;
30458;SDS011;74163;50.912;6.918;2024-03-06T02:27:10;35.30;;;23.17;;
30458;SDS011;74163;50.912;6.918;2024-03-06T02:27:42;33.67;;;22.27;;
30458;SDS011;74163;50.912;6.918;2024-03-06T02:28:14;35.97;;;23.50;;
30458;SDS011;74163;50.912;6.918;2024-03-06T02:28:46;32.35;;;23.05;;
30458;SDS011;74163;50.912;6.918;2024-03-06T02:29:18;34.85;;;23.27;;
30458;SDS011;74163;50.912;6.918;2024-03-06T02:29:50;34.78;;;23.25;;
30458;SDS011;74163;50.912;6.918;2024-03-06T02:30:22;33.92;;;23.40;;
30458;SDS011;74163;50.912;6.918;2024-03-06T02:30:54;36.63;;;24.02;;
30458;SDS011;74163;50.912;6.918;2024-03-06T02:31:26;38.38;;;24.42;;
30458;SDS011;74163;50.912;6.918;2024-03-06T02:31:58;38.13;;;23.10;;
30458;SDS011;74163;50.912;6.918;2024-03-06T02:32:30;36.25;;;23.85;;
30458;SDS011;74163;50.912;6.918;2024-03-06T02:33:02;35.35;;;23.38;;
30458;SDS011;74163;50.912;6.918;2024-03-06T02:33:34;32.67;;;22.15;;
30458;SDS011;74163;50.912;6.918;2024-03-06T02:34:06;37.35;;;24.67;;
30458;SDS011;74163;50.912;6.918;2024-03-06T02:34:38;37.07;;;24.30;;
30458;SDS011;74163;50.912;6.918;2024-03-06T02:35:10;32.47;;;22.55;;
30458;SDS011;74163;50.912;6.918;2024-03-06T02:35:42;37.47;;;23.50;;
30458;SDS011;74163;50.912;6.918;2024-03-06T02:36:15;34.63;;;22.75;;
30458;SDS011;74163;50.912;6.918;2024-03-06T02:36:47;34.72;;;23.55;;
30458;SDS011;74163;50.912;6.918;2024-03-06T02:37:19;34.83;;;23.20;;
30458;SDS011;74163;50.912;6.918;2024-03-06T02:37:51;34.08;;;22.58;;
30458;SDS011;74163;50.912;6.918;2024-03-06T02:38:23;34.33;;;22.83;;
30458;SDS011;74163;50.912;6.918;2024-03-06T02:38:54;33.53;;;22.92;;
30458;SDS011;74163;50.912;6.918;2024-03-06T02:39:26;33.65;;;22.98;;
30458;SDS011;74163;50.912;6.918;2024-03-06T02:39:58;32.75;;;22.83;;
30458;SDS011;74163;50.912;6.918;2024-03-06T02:40:30;31.77;;;21.88;;
30458;SDS011;74163;50.912;6.918;2024-03-06T02:41:02;32.47;;;21.63;;
30458;SDS011;74163;50.912;6.918;2024-03-06T02:41:35;32.58;;;22.67;;
30458;SDS011;74163;50.912;6.918;2024-03-06T02:42:07;32.28;;;21.92;;
30458;SDS011;74163;50.912;6.918;2024-03-06T02:42:39;35.83;;;23.17;;
30458;SDS011;74163;50.912;6.918;2024-03-06T02:43:11;37.92;;;24.92;;
30458;SDS011;74163;50.912;6.918;2024-03-06T02:43:42;41.40;;;25.65;;
30458;SDS011;74163;50.912;6.918;2024-03-06T02:44:14;43.17;;;26.83;;
30458;SDS011;74163;50.912;6.918;2024-03-06T02:44:46;41.55;;;25.88;;
30458;SDS011;74163;50.912;6.918;2024-03-06T02:45:18;40.80;;;26.05;;
30458;SDS011;74163;50.912;6.918;2024-03-06T02:45:50;43.17;;;27.02;;
30458;SDS011;74163;50.912;6.918;2024-03-06T02:46:22;40.50;;;25.85;;
30458;SDS011;74163;50.912;6.918;2024-03-06T02:46:54;39.80;;;25.58;;
30458;SDS011;74163;50.912;6.918;2024-03-06T02:47:25;38.38;;;24.30;;
30458;SDS011;74163;50.912;6.918;2024-03-06T02:47:57;37.77;;;23.30;;
30458;SDS011;74163;50.912;6.918;2024-03-06T02:48:29;36.72;;;23.65;;
30458;SDS011;74163;50.912;6.918;2024-03-06T02:49:01;32.95;;;22.02;;
30458;SDS011;74163;50.912;6.918;2024-03-06T02:49:33;30.30;;;21.63;;
30458;SDS011;74163;50.912;6.918;2024-03-06T02:50:05;30.92;;;21.05;;
30458;SDS011;74163;50.912;6.918;2024-03-06T02:50:39;29.42;;;21.67;;
30458;SDS011;74163;50.912;6.918;2024-03-06T02:51:10;34.20;;;22.58;;
30458;SDS011;74163;50.912;6.918;2024-03-06T02:51:44;32.70;;;22.13;;
30458;SDS011;74163;50.912;6.918;2024-03-06T02:52:16;31.38;;;21.13;;
30458;SDS011;74163;50.912;6.918;2024-03-06T02:52:48;32.58;;;21.55;;
30458;SDS011;74163;50.912;6.918;2024-03-06T02:53:19;30.52;;;20.90;;
30458;SDS011;74163;50.912;6.918;2024-03-06T02:53:51;33.47;;;21.60;;
30458;SDS011;74163;50.912;6.918;2024-03-06T02:54:23;29.17;;;19.73;;
30458;SDS011;74163;50.912;6.918;2024-03-06T02:54:55;29.90;;;19.42;;
30458;SDS011;74163;50.912;6.918;2024-03-06T02:55:27;27.05;;;19.35;;
30458;SDS011;74163;50.912;6.918;2024-03-06T02:55:59;28.00;;;18.83;;
30458;SDS011;74163;50.912;6.918;2024-03-06T02:56:31;27.13;;;19.08;;
30458;SDS011;74163;50.912;6.918;2024-03-06T02:57:03;30.90;;;21.33;;
30458;SDS011;74163;50.912;6.918;2024-03-06T02:57:35;30.77;;;19.83;;
30458;SDS011;74163;50.912;6.918;2024-03-06T02:58:07;30.48;;;19.33;;
30458;SDS011;74163;50.912;6.918;2024-03-06T02:58:39;26.75;;;19.50;;
30458;SDS011;74163;50.912;6.918;2024-03-06T02:59:11;27.40;;;19.65;;
30458;SDS011;74163;50.912;6.918;2024-03-06T02:59:43;29.10;;;19.65;;
30458;SDS011;74163;50.912;6.918;2024-03-06T03:00:15;28.38;;;18.45;;
30458;SDS011;74163;50.912;6.918;2024-03-06T03:00:48;26.30;;;18.55;;
30458;SDS011;74163;50.912;6.918;2024-03-06T03:01:20;26.00;;;18.37;;
30458;SDS011;74163;50.912;6.918;2024-03-06T03:01:51;25.77;;;17.77;;
30458;SDS011;74163;50.912;6.918;2024-03-06T03:02:23;25.23;;;17.70;;
30458;SDS011;74163;50.912;6.918;2024-03-06T03:02:56;26.75;;;17.52;;
30458;SDS011;74163;50.912;6.918;2024-03-06T03:03:27;24.05;;;16.73;;
30458;SDS011;74163;50.912;6.918;2024-03-06T03:03:59;24.05;;;17.02;;
30458;SDS011;74163;50.912;6.918;2024-03-06T03:04:31;24.13;;;17.08;;
30458;SDS011;74163;50.912;6.918;2024-03-06T03:05:03;21.83;;;16.48;;
30458;SDS011;74163;50.912;6.918;2024-03-06T03:05:36;23.15;;;16.33;;
30458;SDS011;74163;50.912;6.918;2024-03-06T03:06:08;23.75;;;16.95;;
30458;SDS011;74163;50.912;6.918;2024-03-06T03:06:39;22.37;;;16.50;;
30458;SDS011;74163;50.912;6.918;2024-03-06T03:07:13;24.80;;;16.73;;
30458;SDS011;74163;50.912;6.918;2024-03-06T03:07:44;24.40;;;17.00;;
30458;SDS011;74163;50.912;6.918;2024-03-06T03:08:16;23.27;;;16.45;;